Time;durP1;ratioP1;P1;durP2;ratioP2;P2;SDS_P1;SDS_P2;PMS_P1;PMS_P2;Temp;Humidity;BMP_temperature;BMP_pressure;BME280_temperature;BME280_humidity;BME280_pressure;Samples;Min_cycle;Max_cycle;Signal;HPM_P1;HPM_P2
2023/09/04 00:00:04;;;;;;;;;;;;;;;19.45;64.31;96388.91;5073548;28;19924;-64
2023/09/04 00:02:31;;;;;;;;;;;;;;;19.51;64.65;96390.22;5073455;28;19932;-68
2023/09/04 00:04:58;;;;;;;;;;;;;;;19.60;63.84;96401.97;5073533;28;20290;-65
2023/09/04 00:07:25;;;;;;;;;;;;;;;19.63;63.41;96388.44;5073399;28;19925;-68
2023/09/04 00:09:51;;;;;;;;;;;;;;;19.76;62.62;96392.81;5073327;28;19924;-66
2023/09/04 00:12:18;;;;;;;;;;;;;;;19.86;61.58;96387.63;5073372;28;20389;-64
2023/09/04 00:14:45;;;;;;;;;;;;;;;19.93;60.43;96384.34;5073203;28;19924;-66
2023/09/04 00:17:13;;;;;;;;;;;;;;;19.98;59.58;96385.81;5073196;28;20390;-68
2023/09/04 00:19:40;;;;;;;;;;;;;;;20.02;58.61;96388.13;5073237;28;19978;-65
2023/09/04 00:22:06;;;;;;;;;;;;;;;19.99;58.40;96382.19;5073018;28;19925;-67
2023/09/04 00:24:33;;;;;;;;;;;;;;;19.95;58.58;96386.91;5073318;28;19968;-68
2023/09/04 00:27:00;;;;;;;;;;;;;;;19.90;58.94;96389.91;5073311;28;19959;-67
2023/09/04 00:29:26;;;;;;;;;;;;;;;19.81;59.30;96393.31;5073201;28;20362;-67
2023/09/04 00:31:53;;;;;;;;;;;;;;;19.76;60.46;96391.00;5073076;28;20294;-66
2023/09/04 00:34:21;;;;;;;;;;;;;;;19.69;61.23;96389.78;5073159;28;20445;-69
2023/09/04 00:36:48;;;;;;;;;;;;;;;19.58;61.50;96385.31;5073048;28;19979;-66
2023/09/04 00:39:16;;;;;;;;;;;;;;;19.47;62.95;96383.47;5073120;28;19924;-65
2023/09/04 00:41:43;;;;;;;;;;;;;;;19.40;63.57;96377.81;5073197;28;20028;-69
2023/09/04 00:44:10;;;;;;;;;;;;;;;19.41;64.07;96382.16;5072928;28;20377;-68
2023/09/04 00:46:37;;;;;;;;;;;;;;;19.30;64.83;96376.84;5073083;28;19928;-65
2023/09/04 00:49:04;;;;;;;;;;;;;;;19.25;65.02;96377.19;5073595;28;20016;-63
2023/09/04 00:51:32;;;;;;;;;;;;;;;19.16;65.50;96370.78;5076767;28;19924;-66
2023/09/04 00:53:59;;;;;;;;;;;;;;;19.11;65.85;96378.22;5076812;28;20346;-64
2023/09/04 00:56:26;;;;;;;;;;;;;;;19.00;66.44;96367.56;5076747;28;19925;-64
2023/09/04 00:58:53;;;;;;;;;;;;;;;19.01;66.44;96372.75;5076932;28;19974;-63
2023/09/04 01:01:20;;;;;;;;;;;;;;;19.00;66.50;96370.19;5076637;28;19924;-69
2023/09/04 01:03:46;;;;;;;;;;;;;;;18.99;66.69;96357.91;5076529;28;19925;-63
2023/09/04 01:06:13;;;;;;;;;;;;;;;18.97;67.11;96358.03;5076579;28;19925;-62
2023/09/04 01:08:41;;;;;;;;;;;;;;;19.01;66.44;96346.25;5076538;28;20002;-67
2023/09/04 01:11:11;;;;;;;;;;;;;;;18.93;66.72;96344.16;5076464;28;19971;-66
2023/09/04 01:13:41;;;;;;;;;;;;;;;18.95;66.79;96336.09;5076189;28;20309;-68
2023/09/04 01:16:08;;;;;;;;;;;;;;;18.97;67.51;96331.53;5076367;28;19935;-66
2023/09/04 01:18:35;;;;;;;;;;;;;;;18.91;68.34;96324.03;5076439;28;19966;-68
2023/09/04 01:21:04;;;;;;;;;;;;;;;18.84;68.90;96328.13;5076002;28;19924;-67
2023/09/04 01:23:31;;;;;;;;;;;;;;;18.74;68.75;96339.41;5076233;28;19924;-68
2023/09/04 01:26:01;;;;;;;;;;;;;;;18.73;68.74;96328.91;5076194;28;20039;-64
2023/09/04 01:28:33;;;;;;;;;;;;;;;18.64;68.66;96323.34;5076168;28;19947;-64
2023/09/04 01:31:03;;;;;;;;;;;;;;;18.66;68.57;96321.41;5076149;28;19924;-67
2023/09/04 01:33:33;;;;;;;;;;;;;;;18.66;69.01;96310.81;5076093;28;19978;-65
2023/09/04 01:36:04;;;;;;;;;;;;;;;18.72;69.76;96298.91;5075969;28;19933;-64
2023/09/04 01:38:33;;;;;;;;;;;;;;;18.66;70.11;96302.06;5075989;28;19925;-66
2023/09/04 01:40:59;;;;;;;;;;;;;;;18.64;70.32;96298.66;5075928;28;19924;-66
2023/09/04 01:43:26;;;;;;;;;;;;;;;18.63;70.78;96297.81;5075958;28;19970;-67
2023/09/04 01:45:53;;;;;;;;;;;;;;;18.64;70.67;96294.22;5075768;28;19970;-67
2023/09/04 01:48:20;;;;;;;;;;;;;;;18.60;71.44;96300.69;5075691;28;19931;-69
2023/09/04 01:50:46;;;;;;;;;;;;;;;18.54;72.20;96301.13;5075906;28;19932;-65
2023/09/04 01:53:13;;;;;;;;;;;;;;;18.52;72.52;96308.38;5075612;28;19924;-63
2023/09/04 01:55:41;;;;;;;;;;;;;;;18.43;72.66;96299.31;5075820;28;19925;-64
2023/09/04 01:58:08;;;;;;;;;;;;;;;18.41;73.41;96286.19;5075686;28;19925;-65
2023/09/04 02:00:35;;;;;;;;;;;;;;;18.45;72.51;96286.78;5075369;28;19939;-64
2023/09/04 02:03:01;;;;;;;;;;;;;;;18.36;72.07;96290.13;5075546;28;19928;-68
2023/09/04 02:05:28;;;;;;;;;;;;;;;18.38;72.41;96289.03;5075553;28;19970;-66
2023/09/04 02:07:55;;;;;;;;;;;;;;;18.45;72.40;96284.13;5075287;28;19947;-67
2023/09/04 02:10:23;;;;;;;;;;;;;;;18.48;71.65;96294.50;5075500;28;19978;-67
2023/09/04 02:12:52;;;;;;;;;;;;;;;18.52;70.90;96290.69;5075321;28;20305;-65
2023/09/04 02:15:18;;;;;;;;;;;;;;;18.61;70.13;96283.00;5075136;28;20015;-64
2023/09/04 02:17:45;;;;;;;;;;;;;;;18.60;70.04;96284.78;5075120;28;19928;-64
2023/09/04 02:20:12;;;;;;;;;;;;;;;18.69;69.76;96278.81;5075159;28;20455;-70
2023/09/04 02:22:39;;;;;;;;;;;;;;;18.76;69.92;96284.50;5074927;28;19978;-68
2023/09/04 02:25:05;;;;;;;;;;;;;;;18.84;70.46;96289.19;5075016;28;19925;-69
2023/09/04 02:27:33;;;;;;;;;;;;;;;18.91;71.03;96286.94;5075038;28;20019;-65
2023/09/04 02:30:03;;;;;;;;;;;;;;;18.94;71.16;96298.13;5074938;28;19963;-66
2023/09/04 02:32:29;;;;;;;;;;;;;;;18.81;71.40;96282.34;5074943;28;19931;-62
2023/09/04 02:34:56;;;;;;;;;;;;;;;18.68;72.61;96285.06;5074693;28;19931;-68
2023/09/04 02:37:23;;;;;;;;;;;;;;;18.58;71.79;96280.56;5074873;28;19925;-65
2023/09/04 02:39:49;;;;;;;;;;;;;;;18.41;71.75;96280.88;5074834;28;19931;-66
2023/09/04 02:42:16;;;;;;;;;;;;;;;18.41;71.75;96283.53;5074664;28;20382;-67
2023/09/04 02:44:43;;;;;;;;;;;;;;;18.44;71.85;96285.94;5074802;28;19932;-64
2023/09/04 02:47:12;;;;;;;;;;;;;;;18.58;71.61;96276.13;5074638;28;19924;-63
2023/09/04 02:49:38;;;;;;;;;;;;;;;18.67;71.24;96275.41;5074598;28;19924;-67
2023/09/04 02:52:05;;;;;;;;;;;;;;;18.74;72.69;96267.03;5074600;28;19925;-65
2023/09/04 02:54:32;;;;;;;;;;;;;;;18.68;72.75;96268.34;5074371;28;19924;-62
2023/09/04 02:56:59;;;;;;;;;;;;;;;18.62;73.79;96268.78;5074535;28;19924;-63
2023/09/04 02:59:26;;;;;;;;;;;;;;;18.55;73.67;96265.78;5074398;28;20027;-68
2023/09/04 03:01:52;;;;;;;;;;;;;;;18.46;74.40;96267.31;5074375;28;19970;-63
2023/09/04 03:04:20;;;;;;;;;;;;;;;18.32;75.20;96265.66;5074329;28;19932;-65
2023/09/04 03:06:48;;;;;;;;;;;;;;;18.31;75.43;96269.28;5074338;28;19928;-62
2023/09/04 03:09:15;;;;;;;;;;;;;;;18.18;76.24;96264.88;5074334;28;19983;-64
2023/09/04 03:11:42;;;;;;;;;;;;;;;18.24;76.58;96265.41;5073369;28;19924;-67
2023/09/04 03:14:09;;;;;;;;;;;;;;;18.15;76.51;96262.47;5074066;28;19935;-65
2023/09/04 03:16:36;;;;;;;;;;;;;;;18.13;76.37;96261.75;5074173;28;19924;-67
2023/09/04 03:19:02;;;;;;;;;;;;;;;18.16;76.91;96258.88;5074037;28;19967;-68
2023/09/04 03:21:32;;;;;;;;;;;;;;;18.09;76.49;96262.03;5073700;28;20359;-65
2023/09/04 03:23:59;;;;;;;;;;;;;;;18.07;76.97;96267.44;5073959;28;20007;-66
2023/09/04 03:26:27;;;;;;;;;;;;;;;18.09;76.72;96270.81;5073774;28;19948;-64
2023/09/04 03:28:53;;;;;;;;;;;;;;;18.16;76.45;96273.91;5073887;28;20007;-65
2023/09/04 03:31:20;;;;;;;;;;;;;;;18.23;76.97;96279.56;5073831;28;19963;-68
2023/09/04 03:33:47;;;;;;;;;;;;;;;18.28;76.92;96282.75;5073728;28;20477;-68
2023/09/04 03:36:14;;;;;;;;;;;;;;;18.29;76.88;96279.97;5073864;28;19950;-69
2023/09/04 03:38:42;;;;;;;;;;;;;;;18.32;76.03;96284.19;5073669;28;19959;-68
2023/09/04 03:41:09;;;;;;;;;;;;;;;18.34;76.17;96286.75;5073655;28;19925;-67
2023/09/04 03:43:36;;;;;;;;;;;;;;;18.36;74.78;96290.13;5073720;28;19998;-65
2023/09/04 03:46:03;;;;;;;;;;;;;;;18.34;73.87;96287.59;5073576;28;19978;-67
2023/09/04 03:48:29;;;;;;;;;;;;;;;18.36;74.56;96280.38;5073697;28;19932;-64
2023/09/04 03:50:58;;;;;;;;;;;;;;;18.38;74.11;96281.09;5073477;28;19925;-68
2023/09/04 03:53:25;;;;;;;;;;;;;;;18.43;74.62;96276.31;5073515;28;19924;-66
2023/09/04 03:55:53;;;;;;;;;;;;;;;18.39;74.07;96285.44;5073700;28;19925;-67
2023/09/04 03:58:20;;;;;;;;;;;;;;;18.44;73.41;96291.25;5073608;28;19925;-66
2023/09/04 04:00:55;;;;;;;;;;;;;;;18.51;73.68;96294.28;5073431;28;19967;-65
2023/09/04 04:03:22;;;;;;;;;;;;;;;18.55;74.11;96294.91;5073520;28;19932;-65
2023/09/04 04:05:49;;;;;;;;;;;;;;;18.55;73.74;96292.25;5073599;28;19978;-67
2023/09/04 04:08:16;;;;;;;;;;;;;;;18.48;73.65;96285.72;5073480;28;19924;-66
2023/09/04 04:10:44;;;;;;;;;;;;;;;18.47;73.96;96295.47;5073420;28;19932;-65
2023/09/04 04:13:13;;;;;;;;;;;;;;;18.41;73.75;96294.13;5073265;28;19925;-65
2023/09/04 04:15:41;;;;;;;;;;;;;;;18.29;74.14;96300.31;5073231;28;19924;-66
2023/09/04 04:18:09;;;;;;;;;;;;;;;18.15;74.91;96298.69;5073376;28;20018;-63
2023/09/04 04:20:36;;;;;;;;;;;;;;;18.13;75.02;96301.44;5073090;28;19971;-67
2023/09/04 04:23:03;;;;;;;;;;;;;;;18.22;75.97;96294.63;5073226;28;20405;-65
2023/09/04 04:25:30;;;;;;;;;;;;;;;18.25;75.99;96294.41;5076331;28;19924;-64
2023/09/04 04:27:57;;;;;;;;;;;;;;;18.28;75.79;96294.19;5077335;28;19925;-67
2023/09/04 04:30:25;;;;;;;;;;;;;;;18.34;76.27;96294.69;5077265;28;20003;-66
2023/09/04 04:32:52;;;;;;;;;;;;;;;18.38;75.77;96294.34;5077444;28;19924;-67
2023/09/04 04:35:19;;;;;;;;;;;;;;;18.42;75.24;96292.28;5077015;28;20281;-68
2023/09/04 04:37:46;;;;;;;;;;;;;;;18.50;75.62;96283.78;5077107;28;19924;-63
2023/09/04 04:40:13;;;;;;;;;;;;;;;18.53;74.80;96288.88;5077033;28;19931;-65
2023/09/04 04:42:40;;;;;;;;;;;;;;;18.59;75.13;96291.06;5076955;28;20378;-67
2023/09/04 04:45:08;;;;;;;;;;;;;;;18.62;73.92;96292.63;5077003;28;19925;-68
2023/09/04 04:47:36;;;;;;;;;;;;;;;18.70;73.63;96282.31;5076949;28;19924;-69
2023/09/04 04:50:03;;;;;;;;;;;;;;;18.75;73.31;96288.09;5076897;28;20397;-62
2023/09/04 04:52:29;;;;;;;;;;;;;;;18.80;72.49;96291.25;5077032;28;20347;-67
2023/09/04 04:54:56;;;;;;;;;;;;;;;18.84;72.89;96293.69;5076660;28;19955;-67
2023/09/04 04:57:24;;;;;;;;;;;;;;;18.85;72.69;96296.22;5076730;28;20008;-68
2023/09/04 04:59:51;;;;;;;;;;;;;;;18.88;71.84;96303.06;5076610;28;19924;-68
2023/09/04 05:02:18;;;;;;;;;;;;;;;18.89;72.13;96305.63;5076727;28;19978;-66
2023/09/04 05:04:47;;;;;;;;;;;;;;;18.93;70.45;96311.50;5076584;28;19950;-67
2023/09/04 05:07:14;;;;;;;;;;;;;;;18.91;69.75;96313.44;5076646;28;19924;-67
2023/09/04 05:09:40;;;;;;;;;;;;;;;18.93;71.86;96309.72;5076559;28;19964;-67
2023/09/04 05:12:07;;;;;;;;;;;;;;;18.96;71.42;96313.94;5076455;28;19925;-65
2023/09/04 05:14:35;;;;;;;;;;;;;;;18.93;70.52;96316.81;5076366;28;19924;-63
2023/09/04 05:17:02;;;;;;;;;;;;;;;18.89;70.90;96316.22;5076490;28;19971;-65
2023/09/04 05:19:30;;;;;;;;;;;;;;;18.87;69.40;96318.13;5076485;28;19930;-66
2023/09/04 05:21:58;;;;;;;;;;;;;;;18.80;69.86;96317.75;5076103;28;20317;-63
2023/09/04 05:24:25;;;;;;;;;;;;;;;18.77;68.96;96325.94;5076196;28;19931;-67
2023/09/04 05:26:52;;;;;;;;;;;;;;;18.73;69.10;96319.19;5076185;28;19924;-67
2023/09/04 05:29:19;;;;;;;;;;;;;;;18.64;67.51;96322.50;5076150;28;19960;-64
2023/09/04 05:31:46;;;;;;;;;;;;;;;18.58;69.00;96325.59;5076125;28;20019;-63
2023/09/04 05:34:13;;;;;;;;;;;;;;;18.48;68.23;96328.91;5076182;28;19931;-66
2023/09/04 05:36:40;;;;;;;;;;;;;;;18.39;68.88;96332.25;5075394;28;20035;-66
2023/09/04 05:39:09;;;;;;;;;;;;;;;18.40;69.06;96326.84;5075942;28;19978;-68
2023/09/04 05:41:36;;;;;;;;;;;;;;;18.44;68.52;96328.31;5075946;28;20018;-63
2023/09/04 05:44:03;;;;;;;;;;;;;;;18.51;68.57;96323.41;5076057;28;19976;-67
2023/09/04 05:46:31;;;;;;;;;;;;;;;18.61;68.17;96318.28;5075850;28;20336;-65
2023/09/04 05:48:58;;;;;;;;;;;;;;;18.73;68.09;96326.25;5075858;28;19971;-69
2023/09/04 05:51:25;;;;;;;;;;;;;;;18.84;71.13;96320.16;5075789;28;20340;-68
2023/09/04 05:53:51;;;;;;;;;;;;;;;18.90;72.17;96320.53;5075775;28;19925;-68
2023/09/04 05:56:20;;;;;;;;;;;;;;;18.92;72.32;96321.28;5075513;28;20297;-66
2023/09/04 05:58:47;;;;;;;;;;;;;;;18.91;71.79;96314.28;5075608;28;19924;-64
2023/09/04 06:01:14;;;;;;;;;;;;;;;18.97;71.42;96312.13;5075670;28;19924;-66
2023/09/04 06:03:41;;;;;;;;;;;;;;;18.99;69.75;96323.47;5075587;28;19925;-65
2023/09/04 06:06:09;;;;;;;;;;;;;;;19.00;71.11;96323.34;5075631;28;19947;-70
2023/09/04 06:08:36;;;;;;;;;;;;;;;18.94;69.93;96324.63;5075641;28;19924;-67
2023/09/04 06:11:03;;;;;;;;;;;;;;;19.00;71.10;96328.66;5075346;28;20028;-63
2023/09/04 06:13:31;;;;;;;;;;;;;;;19.05;71.28;96326.47;5075378;28;19924;-64
2023/09/04 06:15:58;;;;;;;;;;;;;;;19.01;71.09;96330.34;5075239;28;19928;-65
2023/09/04 06:18:28;;;;;;;;;;;;;;;19.01;71.14;96334.78;5075222;28;20298;-67
2023/09/04 06:20:54;;;;;;;;;;;;;;;19.03;71.60;96327.56;5074928;28;19932;-68
2023/09/04 06:23:21;;;;;;;;;;;;;;;19.07;72.90;96334.31;5075188;28;20028;-65
2023/09/04 06:25:48;;;;;;;;;;;;;;;19.11;73.02;96332.31;5075087;28;20348;-65
2023/09/04 06:28:16;;;;;;;;;;;;;;;19.15;74.79;96333.78;5075130;28;19931;-67
2023/09/04 06:30:44;;;;;;;;;;;;;;;19.19;75.94;96337.88;5075125;28;20285;-64
2023/09/04 06:33:11;;;;;;;;;;;;;;;19.17;76.77;96335.34;5075056;28;19925;-64
2023/09/04 06:35:38;;;;;;;;;;;;;;;19.15;77.00;96344.38;5075011;28;19978;-67
2023/09/04 06:38:05;;;;;;;;;;;;;;;19.16;76.69;96343.41;5074966;28;20278;-67
2023/09/04 06:40:32;;;;;;;;;;;;;;;19.12;76.26;96347.25;5074749;28;20370;-64
2023/09/04 06:42:59;;;;;;;;;;;;;;;19.14;76.51;96348.00;5074719;28;20357;-65
2023/09/04 06:45:26;;;;;;;;;;;;;;;19.08;76.12;96351.94;5074809;28;19924;-65
2023/09/04 06:47:54;;;;;;;;;;;;;;;19.10;76.63;96349.16;5073703;28;19932;-66
2023/09/04 06:50:21;;;;;;;;;;;;;;;19.06;77.06;96353.84;5074588;28;20409;-68
2023/09/04 06:52:48;;;;;;;;;;;;;;;19.09;77.52;96353.66;5074549;28;19932;-65
2023/09/04 06:55:15;;;;;;;;;;;;;;;19.11;78.48;96356.19;5074436;28;19963;-64
2023/09/04 06:57:41;;;;;;;;;;;;;;;19.10;77.75;96355.31;5074483;28;20352;-65
2023/09/04 07:00:10;;;;;;;;;;;;;;;19.07;77.69;96358.19;5074637;28;20003;-64
2023/09/04 07:02:37;;;;;;;;;;;;;;;19.00;76.28;96357.81;5074545;28;19928;-64
2023/09/04 07:05:08;;;;;;;;;;;;;;;18.90;76.34;96357.63;5074343;28;19925;-65
2023/09/04 07:07:35;;;;;;;;;;;;;;;18.79;76.36;96361.06;5074231;28;20423;-64
2023/09/04 07:10:02;;;;;;;;;;;;;;;18.58;77.06;96370.63;5074326;28;19925;-65
2023/09/04 07:12:30;;;;;;;;;;;;;;;18.53;78.33;96369.16;5074080;28;19931;-65
2023/09/04 07:14:57;;;;;;;;;;;;;;;18.49;79.02;96374.78;5074189;28;19986;-65
2023/09/04 07:17:24;;;;;;;;;;;;;;;18.57;79.77;96380.38;5074027;28;19924;-65
2023/09/04 07:19:51;;;;;;;;;;;;;;;18.56;81.24;96376.88;5074021;28;19975;-64
2023/09/04 07:22:19;;;;;;;;;;;;;;;18.58;80.03;96381.22;5073813;28;19950;-66
2023/09/04 07:24:46;;;;;;;;;;;;;;;18.66;80.63;96381.53;5073952;28;20344;-64
2023/09/04 07:27:12;;;;;;;;;;;;;;;18.76;81.83;96379.88;5074064;28;19924;-66
2023/09/04 07:29:39;;;;;;;;;;;;;;;18.81;81.27;96379.50;5073919;28;19924;-64
2023/09/04 07:32:07;;;;;;;;;;;;;;;18.85;79.82;96380.13;5073950;28;19931;-64
2023/09/04 07:34:33;;;;;;;;;;;;;;;18.75;78.46;96378.16;5073828;28;19931;-64
2023/09/04 07:37:00;;;;;;;;;;;;;;;18.60;79.13;96381.97;5073794;28;19928;-67
2023/09/04 07:39:28;;;;;;;;;;;;;;;18.44;79.06;96383.94;5073702;28;19925;-66
2023/09/04 07:41:55;;;;;;;;;;;;;;;18.41;79.87;96380.63;5073808;28;20447;-63
2023/09/04 07:44:23;;;;;;;;;;;;;;;18.37;80.55;96390.63;5073833;28;19924;-65
2023/09/04 07:46:50;;;;;;;;;;;;;;;18.33;82.04;96389.13;5073595;28;19929;-64
2023/09/04 07:49:16;;;;;;;;;;;;;;;18.33;82.13;96389.13;5073649;28;19924;-65
2023/09/04 07:51:43;;;;;;;;;;;;;;;18.21;82.18;96384.75;5073772;28;19925;-63
2023/09/04 07:54:11;;;;;;;;;;;;;;;18.26;83.64;96387.88;5073567;28;19924;-64
2023/09/04 07:56:39;;;;;;;;;;;;;;;18.20;83.86;96391.81;5073506;28;19929;-63
2023/09/04 07:59:06;;;;;;;;;;;;;;;18.16;83.75;96393.84;5073340;28;19925;-62
2023/09/04 08:01:32;;;;;;;;;;;;;;;18.11;84.01;96389.81;5073469;28;19931;-67
2023/09/04 08:04:00;;;;;;;;;;;;;;;18.15;85.07;96405.38;5073420;28;20014;-67
2023/09/04 08:06:27;;;;;;;;;;;;;;;18.10;85.22;96409.28;5073428;28;19971;-67
2023/09/04 08:08:54;;;;;;;;;;;;;;;18.19;85.12;96408.66;5073567;28;20008;-64
2023/09/04 08:11:20;;;;;;;;;;;;;;;18.28;83.60;96413.31;5073477;28;19925;-65
2023/09/04 08:13:48;;;;;;;;;;;;;;;18.41;82.95;96420.34;5073371;28;19986;-66
2023/09/04 08:16:16;;;;;;;;;;;;;;;18.54;83.51;96421.16;5073403;28;20022;-63
2023/09/04 08:18:42;;;;;;;;;;;;;;;18.69;83.03;96405.97;5073226;28;20290;-64
2023/09/04 08:21:09;;;;;;;;;;;;;;;18.72;82.65;96412.81;5073089;28;19924;-65
2023/09/04 08:23:36;;;;;;;;;;;;;;;18.66;80.73;96411.47;5073254;28;19924;-66
2023/09/04 08:26:03;;;;;;;;;;;;;;;18.68;81.12;96409.56;5073368;28;19968;-65
2023/09/04 08:28:30;;;;;;;;;;;;;;;18.74;81.84;96413.56;5073343;28;20017;-63
2023/09/04 08:30:59;;;;;;;;;;;;;;;18.78;82.28;96411.56;5073242;28;19924;-67
2023/09/04 08:33:25;;;;;;;;;;;;;;;18.89;82.04;96416.03;5073253;28;19926;-66
2023/09/04 08:35:52;;;;;;;;;;;;;;;18.86;79.53;96416.28;5073057;28;20377;-65
2023/09/04 08:38:19;;;;;;;;;;;;;;;18.73;80.75;96416.34;5073225;28;19930;-67
2023/09/04 08:40:46;;;;;;;;;;;;;;;18.56;80.47;96415.75;5073229;28;20386;-65
2023/09/04 08:43:15;;;;;;;;;;;;;;;18.57;81.17;96420.09;5073018;28;20374;-63
2023/09/04 08:45:42;;;;;;;;;;;;;;;18.50;81.14;96422.34;5073196;28;19932;-63
2023/09/04 08:48:12;;;;;;;;;;;;;;;18.29;80.65;96424.72;5073148;28;20275;-66
2023/09/04 08:50:39;;;;;;;;;;;;;;;18.16;81.73;96419.47;5073088;28;19931;-66
2023/09/04 08:53:06;;;;;;;;;;;;;;;18.05;81.19;96428.13;5073067;28;19939;-63
2023/09/04 08:55:33;;;;;;;;;;;;;;;18.06;82.67;96432.44;5072928;28;20003;-65
2023/09/04 08:58:00;;;;;;;;;;;;;;;18.08;83.04;96432.34;5072953;28;19928;-63
2023/09/04 09:00:27;;;;;;;;;;;;;;;18.14;83.88;96424.88;5072885;28;20022;-66
2023/09/04 09:02:56;;;;;;;;;;;;;;;18.20;84.04;96423.59;5072998;28;20023;-63
2023/09/04 09:05:25;;;;;;;;;;;;;;;18.19;82.72;96422.72;5072999;28;20360;-63
2023/09/04 09:07:53;;;;;;;;;;;;;;;18.29;82.75;96428.22;5073001;28;19931;-66
2023/09/04 09:10:21;;;;;;;;;;;;;;;18.31;81.59;96415.72;5073814;28;19925;-64
2023/09/04 09:12:48;;;;;;;;;;;;;;;18.34;81.10;96424.41;5076597;28;20382;-63
2023/09/04 09:15:17;;;;;;;;;;;;;;;18.35;82.41;96423.44;5076334;28;20305;-63
2023/09/04 09:17:50;;;;;;;;;;;;;;;18.41;83.72;96429.16;5076364;28;19924;-66
2023/09/04 09:20:30;;;;;;;;;;;;;;;18.55;82.48;96420.19;5076335;28;19935;-62
2023/09/04 09:22:57;;;;;;;;;;;;;;;18.67;81.31;96418.47;5036451;28;20330;-65
2023/09/04 09:25:24;;;;;;;;;;;;;;;18.64;79.67;96413.41;5036520;28;20000;-64
2023/09/04 09:27:51;;;;;;;;;;;;;;;18.60;78.10;96408.44;5036427;28;20383;-63
2023/09/04 09:30:18;;;;;;;;;;;;;;;18.54;78.35;96404.41;5036165;28;19928;-63
2023/09/04 09:32:46;;;;;;;;;;;;;;;18.62;79.52;96402.06;5036390;28;19964;-66
2023/09/04 09:35:13;;;;;;;;;;;;;;;18.74;80.14;96395.03;5036130;28;20019;-63
2023/09/04 09:37:43;;;;;;;;;;;;;;;18.85;80.45;96383.66;5036200;28;20008;-64
2023/09/04 09:40:10;;;;;;;;;;;;;;;18.96;79.89;96384.66;5036164;28;19968;-67
2023/09/04 09:42:37;;;;;;;;;;;;;;;18.98;78.80;96378.28;5036073;28;19925;-64
2023/09/04 09:45:06;;;;;;;;;;;;;;;19.08;79.42;96383.75;5036026;28;19987;-67
2023/09/04 09:47:34;;;;;;;;;;;;;;;19.01;79.47;96388.66;5036016;28;19925;-66
2023/09/04 09:50:01;;;;;;;;;;;;;;;18.98;79.60;96386.22;5035983;28;19929;-68
2023/09/04 09:52:28;;;;;;;;;;;;;;;19.00;80.90;96375.50;5035968;28;19931;-68
2023/09/04 09:54:57;;;;;;;;;;;;;;;19.07;80.26;96387.34;5035837;28;19975;-65
2023/09/04 09:57:25;;;;;;;;;;;;;;;19.13;80.70;96389.56;5035747;28;19926;-63
2023/09/04 09:59:52;;;;;;;;;;;;;;;19.17;78.83;96393.66;5035828;28;19979;-63
2023/09/04 10:02:21;;;;;;;;;;;;;;;19.22;77.90;96384.50;5035645;28;19980;-64
2023/09/04 10:04:49;;;;;;;;;;;;;;;19.24;76.96;96382.59;5035698;28;19925;-64
2023/09/04 10:07:17;;;;;;;;;;;;;;;19.23;76.64;96380.91;5035642;28;20371;-67
2023/09/04 10:09:46;;;;;;;;;;;;;;;19.37;77.70;96383.34;5035494;28;19929;-64
2023/09/04 10:12:17;;;;;;;;;;;;;;;19.42;77.57;96388.31;5035530;28;20008;-65
2023/09/04 10:14:46;;;;;;;;;;;;;;;19.45;77.88;96380.13;5035496;28;19951;-67
2023/09/04 10:17:16;;;;;;;;;;;;;;;19.34;73.87;96383.59;5035298;28;19928;-66
2023/09/04 10:19:45;;;;;;;;;;;;;;;19.30;75.32;96385.63;5035401;28;19929;-67
2023/09/04 10:22:16;;;;;;;;;;;;;;;19.26;76.31;96394.75;5063813;28;20259;-64
2023/09/04 10:24:47;;;;;;;;;;;;;;;19.11;76.75;96390.66;5075188;28;19924;-68
2023/09/04 10:27:18;;;;;;;;;;;;;;;19.10;76.29;96391.56;5075215;28;20409;-67
2023/09/04 10:29:48;;;;;;;;;;;;;;;19.13;77.55;96389.56;5075124;28;19932;-67
2023/09/04 10:32:15;;;;;;;;;;;;;;;19.23;78.25;96386.22;5075222;28;19924;-69
2023/09/04 10:34:41;;;;;;;;;;;;;;;19.30;78.20;96380.31;5075086;28;19924;-65
2023/09/04 10:37:10;;;;;;;;;;;;;;;19.30;76.82;96384.78;5074906;28;19926;-68
2023/09/04 10:39:37;;;;;;;;;;;;;;;19.31;76.83;96379.38;5074851;28;19925;-64
2023/09/04 10:42:04;;;;;;;;;;;;;;;19.38;77.36;96381.56;5074939;28;19928;-65
2023/09/04 10:44:51;;;;;;;;;;;;;;;19.45;78.69;96383.59;5074860;28;19924;-66
2023/09/04 10:47:19;;;;;;;;;;;;;;;19.60;77.53;96378.09;5074674;28;19932;-65
2023/09/04 10:49:46;;;;;;;;;;;;;;;19.70;76.91;96386.16;5074694;28;19970;-65
2023/09/04 10:52:14;;;;;;;;;;;;;;;19.74;74.98;96379.66;5074691;28;20007;-66
2023/09/04 10:54:41;;;;;;;;;;;;;;;19.72;74.71;96384.25;5074545;28;19978;-66
2023/09/04 11:09:23;;;;;;;4.22;2.63;;;;;;;21.01;67.59;96383.81;5131786;27;20607;-66
2023/09/04 11:11:58;;;;;;;4.57;3.13;;;;;;;20.91;67.69;96377.59;5131460;27;20048;-68
2023/09/04 11:14:34;;;;;;;4.57;2.75;;;;;;;20.98;67.04;96383.25;5131254;27;20500;-67
2023/09/04 11:17:04;;;;;;;2.97;2.70;;;;;;;21.04;68.11;96362.28;5131258;27;20138;-71
2023/09/04 11:19:31;;;;;;;4.30;2.50;;;;;;;21.31;65.21;96378.75;5131098;28;20047;-63
2023/09/04 11:21:58;;;;;;;2.45;2.25;;;;;;;21.52;63.39;96375.22;5131255;27;20055;-62
2023/09/04 11:24:27;;;;;;;2.97;2.42;;;;;;;21.83;65.02;96372.59;5130926;28;20043;-70
2023/09/04 11:26:54;;;;;;;2.45;2.25;;;;;;;21.74;63.27;96386.66;5131176;28;20052;-69
2023/09/04 11:29:21;;;;;;;4.32;1.92;;;;;;;21.70;63.10;96384.28;5131047;27;20046;-68
2023/09/04 11:31:48;;;;;;;2.15;1.95;;;;;;;21.82;65.53;96376.22;5130927;28;20074;-64
2023/09/04 11:34:21;;;;;;;2.08;1.90;;;;;;;22.15;62.69;96381.44;5130906;27;20079;-68
2023/09/04 11:36:48;;;;;;;5.88;1.95;;;;;;;22.07;58.92;96382.09;5130779;27;20096;-67
2023/09/04 11:39:16;;;;;;;2.58;2.00;;;;;;;21.81;59.39;96382.53;5130780;28;20519;-66
2023/09/04 11:41:44;;;;;;;2.30;2.03;;;;;;;21.81;61.51;96374.53;5130862;27;20096;-67
2023/09/04 11:44:11;;;;;;;2.80;2.00;;;;;;;22.01;61.65;96364.84;5130803;27;20043;-65
2023/09/04 11:46:38;;;;;;;3.88;1.77;;;;;;;22.35;61.18;96371.66;5130767;27;20548;-66
2023/09/04 11:49:06;;;;;;;3.40;2.35;;;;;;;22.58;62.78;96366.94;5130596;27;20047;-66
2023/09/04 11:51:33;;;;;;;6.38;2.00;;;;;;;22.52;59.95;96370.16;5130622;27;20438;-65
2023/09/04 11:54:00;;;;;;;2.28;2.00;;;;;;;22.28;58.61;96370.53;5130485;28;20526;-64
2023/09/04 11:56:27;;;;;;;2.60;2.28;;;;;;;22.24;62.47;96363.78;5130625;27;20047;-68
2023/09/04 11:58:56;;;;;;;2.13;1.98;;;;;;;22.25;58.05;96374.31;5130504;28;20051;-63
2023/09/04 12:01:23;;;;;;;1.85;1.75;;;;;;;22.18;58.62;96359.81;5130483;28;20040;-66
2023/09/04 12:03:53;;;;;;;3.17;2.00;;;;;;;22.17;58.83;96371.47;5130198;28;20051;-67
2023/09/04 12:06:20;;;;;;;3.63;1.90;;;;;;;22.15;57.64;96366.28;5130632;27;20108;-68
2023/09/04 12:08:47;;;;;;;2.92;1.98;;;;;;;22.12;60.86;96360.38;5124947;27;20097;-66
2023/09/04 12:11:15;;;;;;;3.40;1.80;;;;;;;22.13;61.06;96362.06;5116391;28;20048;-67
2023/09/04 12:13:42;;;;;;;1.58;1.48;;;;;;;22.10;57.63;96360.53;5116522;28;20051;-70
2023/09/04 12:16:11;;;;;;;3.30;1.77;;;;;;;22.13;57.64;96354.06;5116246;28;20036;-68
2023/09/04 12:18:39;;;;;;;1.55;1.45;;;;;;;21.97;54.12;96350.09;5116312;28;20470;-66
2023/09/04 12:21:10;;;;;;;2.90;1.20;;;;;;;21.74;54.63;96347.59;5116327;28;20044;-70
2023/09/04 12:23:40;;;;;;;1.70;1.60;;;;;;;21.90;55.70;96343.63;5116190;28;20048;-67
2023/09/04 12:26:07;;;;;;;2.13;1.92;;;;;;;21.80;54.36;96338.28;5116161;28;20043;-64
2023/09/04 12:28:34;;;;;;;1.65;1.23;;;;;;;21.83;54.66;96332.69;5116337;28;20097;-67
2023/09/04 12:31:02;;;;;;;1.08;1.08;;;;;;;21.87;56.15;96335.91;5116227;28;20131;-65
2023/09/04 12:33:31;;;;;;;4.10;1.10;;;;;;;22.06;56.31;96335.13;5116088;28;20086;-68
2023/09/04 12:36:00;;;;;;;1.30;1.20;;;;;;;21.94;54.82;96329.06;5116178;28;20048;-63
2023/09/04 12:38:27;;;;;;;1.98;1.10;;;;;;;22.04;55.57;96329.97;5115840;28;20134;-64
2023/09/04 12:40:54;;;;;;;1.20;1.10;;;;;;;22.11;54.18;96330.25;5116007;28;20090;-66
2023/09/04 12:43:21;;;;;;;0.98;0.98;;;;;;;22.03;53.31;96322.09;5115936;28;20616;-65
2023/09/04 12:45:48;;;;;;;1.35;0.90;;;;;;;22.05;54.51;96330.78;5115854;28;20154;-69
2023/09/04 12:48:16;;;;;;;1.50;1.00;;;;;;;21.89;53.51;96337.47;5115791;28;20073;-70